KCSM

Clinton-Sherman Airport

Burns Flat, Oklahoma, USA
METAR KCSM 171353Z AUTO 32007KT 10SM CLR M01/M04 A3031 RMK AO2 SLP272 T10061039
Observed Flight Rules
Dec-17 @ 13:53 UTC (42 minutes ago) Visual Flight Rules
Wind Visibility Clouds
320° at 7 knots 10 miles
  • Clear skies
Temperatures Readings
Current -1°C / 30°F
Dewpoint -4°C / 25°F
Humidity 80%
Altimeter 30.31" Hg
Pressure 1027.2 hPa
Elevation 588
METAR KCSM 171353Z AUTO 32007KT 10SM CLR M01/M04 A3031 RMK AO2 SLP272 T10061039
Observed Flight Rules
Dec-17 @ 13:53 UTC
(42 minutes ago)
VFR
Wind Visibility
320° at 7 knots 10 miles
Clouds
  • Clear skies
Temperature Dewpoint
-1°C / 30°F -4°C / 25°F
Humidity Altimeter Pressure
80% 30.31" Hg 1027.2 hPa